< < Back
Terminal Aerodrome Forecast


Current Version              Previous Versions:   1  2  3  4  5  6  7  8  9  

Terminal Aerodrome Forecast

373
FTUS42 KGSP 221501 AAB
TAFGSP
TAF AMD
KGSP 221501Z 2215/2312 04009KT 5SM -DZ BR OVC008
      TEMPO 2215/2218 2SM -DZ BR OVC005
     FM221800 05008KT P6SM OVC008
     FM230100 05008KT 4SM -DZ BR OVC007
     FM230400 05008KT 3SM -RA BR OVC005
     FM230800 04007KT 2SM -RA BR OVC003=



Latest METAR

641
SAUS70 KWBC 230200 RRL
MTRGSP
METAR KGSP 230153Z 04008KT 3SM RA BR OVC005 04/04 A3001 RMK AO2 RAB02
SLP165 P0003 T00390039


USA.gov is the U.S. government's official web portal to all federal, state and local government web resources and services.